sensor_id;sensor_type;location;lat;lon;timestamp;P1;durP1;ratioP1;P2;durP2;ratioP2
66546;SDS011;53400;50.364;14.874;2023-06-01T00:01:02;7.30;;;3.40;;
66546;SDS011;53400;50.364;14.874;2023-06-01T00:03:42;7.40;;;3.35;;
66546;SDS011;53400;50.364;14.874;2023-06-01T00:06:10;7.20;;;3.60;;
66546;SDS011;53400;50.364;14.874;2023-06-01T00:08:36;5.63;;;3.45;;
66546;SDS011;53400;50.364;14.874;2023-06-01T00:11:03;8.35;;;4.00;;
66546;SDS011;53400;50.364;14.874;2023-06-01T00:13:29;7.63;;;4.13;;
66546;SDS011;53400;50.364;14.874;2023-06-01T00:15:55;7.70;;;4.05;;
66546;SDS011;53400;50.364;14.874;2023-06-01T00:18:21;5.45;;;3.38;;
66546;SDS011;53400;50.364;14.874;2023-06-01T00:20:47;7.07;;;3.97;;
66546;SDS011;53400;50.364;14.874;2023-06-01T00:23:13;7.68;;;4.05;;
66546;SDS011;53400;50.364;14.874;2023-06-01T00:25:41;9.38;;;4.32;;
66546;SDS011;53400;50.364;14.874;2023-06-01T00:28:08;7.43;;;4.05;;
66546;SDS011;53400;50.364;14.874;2023-06-01T00:30:34;7.60;;;4.20;;
66546;SDS011;53400;50.364;14.874;2023-06-01T00:33:00;6.53;;;3.80;;
66546;SDS011;53400;50.364;14.874;2023-06-01T00:35:26;7.57;;;4.45;;
66546;SDS011;53400;50.364;14.874;2023-06-01T00:37:52;8.13;;;4.15;;
66546;SDS011;53400;50.364;14.874;2023-06-01T00:40:19;7.40;;;4.05;;
66546;SDS011;53400;50.364;14.874;2023-06-01T00:42:44;9.27;;;3.88;;
66546;SDS011;53400;50.364;14.874;2023-06-01T00:45:12;7.78;;;3.92;;
66546;SDS011;53400;50.364;14.874;2023-06-01T00:47:39;7.95;;;4.00;;
66546;SDS011;53400;50.364;14.874;2023-06-01T00:50:07;7.28;;;4.00;;
66546;SDS011;53400;50.364;14.874;2023-06-01T00:52:34;8.65;;;4.32;;
66546;SDS011;53400;50.364;14.874;2023-06-01T00:55:01;8.02;;;4.50;;
66546;SDS011;53400;50.364;14.874;2023-06-01T00:57:27;7.32;;;4.70;;
66546;SDS011;53400;50.364;14.874;2023-06-01T00:59:54;8.77;;;5.07;;
66546;SDS011;53400;50.364;14.874;2023-06-01T01:02:21;9.20;;;4.30;;
66546;SDS011;53400;50.364;14.874;2023-06-01T01:04:48;7.78;;;4.25;;
66546;SDS011;53400;50.364;14.874;2023-06-01T01:07:19;8.52;;;4.43;;
66546;SDS011;53400;50.364;14.874;2023-06-01T01:09:53;9.10;;;4.60;;
66546;SDS011;53400;50.364;14.874;2023-06-01T01:12:26;8.98;;;4.68;;
66546;SDS011;53400;50.364;14.874;2023-06-01T01:14:59;8.43;;;4.57;;
66546;SDS011;53400;50.364;14.874;2023-06-01T01:17:36;11.43;;;5.50;;
66546;SDS011;53400;50.364;14.874;2023-06-01T01:20:12;8.50;;;4.93;;
66546;SDS011;53400;50.364;14.874;2023-06-01T01:22:49;8.23;;;4.43;;
66546;SDS011;53400;50.364;14.874;2023-06-01T01:25:36;9.68;;;5.10;;
66546;SDS011;53400;50.364;14.874;2023-06-01T01:28:29;8.77;;;4.57;;
66546;SDS011;53400;50.364;14.874;2023-06-01T01:30:59;7.50;;;4.40;;
66546;SDS011;53400;50.364;14.874;2023-06-01T01:33:26;8.73;;;4.60;;
66546;SDS011;53400;50.364;14.874;2023-06-01T01:35:54;6.63;;;4.10;;
66546;SDS011;53400;50.364;14.874;2023-06-01T01:38:21;9.30;;;4.82;;
66546;SDS011;53400;50.364;14.874;2023-06-01T01:40:47;7.40;;;4.53;;
66546;SDS011;53400;50.364;14.874;2023-06-01T01:43:15;10.23;;;4.50;;
66546;SDS011;53400;50.364;14.874;2023-06-01T01:45:42;7.43;;;4.75;;
66546;SDS011;53400;50.364;14.874;2023-06-01T01:48:11;9.95;;;5.70;;
66546;SDS011;53400;50.364;14.874;2023-06-01T01:50:46;9.80;;;4.65;;
66546;SDS011;53400;50.364;14.874;2023-06-01T01:53:17;7.70;;;4.80;;
66546;SDS011;53400;50.364;14.874;2023-06-01T01:55:44;9.85;;;5.15;;
66546;SDS011;53400;50.364;14.874;2023-06-01T01:58:11;8.40;;;4.90;;
66546;SDS011;53400;50.364;14.874;2023-06-01T02:00:38;7.65;;;4.47;;
66546;SDS011;53400;50.364;14.874;2023-06-01T02:03:08;10.13;;;5.15;;
66546;SDS011;53400;50.364;14.874;2023-06-01T02:05:38;10.18;;;4.60;;
66546;SDS011;53400;50.364;14.874;2023-06-01T02:08:04;8.90;;;4.90;;
66546;SDS011;53400;50.364;14.874;2023-06-01T02:10:31;8.57;;;4.80;;
66546;SDS011;53400;50.364;14.874;2023-06-01T02:12:57;9.18;;;4.57;;
66546;SDS011;53400;50.364;14.874;2023-06-01T02:15:23;8.68;;;4.63;;
66546;SDS011;53400;50.364;14.874;2023-06-01T02:17:48;8.20;;;4.70;;
66546;SDS011;53400;50.364;14.874;2023-06-01T02:20:17;8.05;;;4.45;;
66546;SDS011;53400;50.364;14.874;2023-06-01T02:22:42;8.50;;;4.60;;
66546;SDS011;53400;50.364;14.874;2023-06-01T02:25:09;7.93;;;4.53;;
66546;SDS011;53400;50.364;14.874;2023-06-01T02:27:34;6.20;;;4.25;;
66546;SDS011;53400;50.364;14.874;2023-06-01T02:30:01;7.15;;;4.60;;
66546;SDS011;53400;50.364;14.874;2023-06-01T02:32:26;9.85;;;4.57;;
66546;SDS011;53400;50.364;14.874;2023-06-01T02:34:53;6.57;;;4.63;;
66546;SDS011;53400;50.364;14.874;2023-06-01T02:37:20;7.50;;;4.40;;
66546;SDS011;53400;50.364;14.874;2023-06-01T02:39:46;7.53;;;4.40;;
66546;SDS011;53400;50.364;14.874;2023-06-01T02:42:13;8.50;;;5.40;;
66546;SDS011;53400;50.364;14.874;2023-06-01T02:44:39;8.57;;;4.70;;
66546;SDS011;53400;50.364;14.874;2023-06-01T02:47:05;7.63;;;4.60;;
66546;SDS011;53400;50.364;14.874;2023-06-01T02:49:32;8.48;;;4.50;;
66546;SDS011;53400;50.364;14.874;2023-06-01T02:51:58;7.20;;;4.40;;
66546;SDS011;53400;50.364;14.874;2023-06-01T02:54:25;7.22;;;4.45;;
66546;SDS011;53400;50.364;14.874;2023-06-01T02:56:51;7.63;;;4.50;;
66546;SDS011;53400;50.364;14.874;2023-06-01T02:59:17;8.38;;;4.72;;
66546;SDS011;53400;50.364;14.874;2023-06-01T03:01:43;8.20;;;4.50;;
66546;SDS011;53400;50.364;14.874;2023-06-01T03:04:09;6.75;;;4.35;;
66546;SDS011;53400;50.364;14.874;2023-06-01T03:06:37;6.97;;;4.30;;
66546;SDS011;53400;50.364;14.874;2023-06-01T03:09:03;6.82;;;4.50;;
66546;SDS011;53400;50.364;14.874;2023-06-01T03:11:30;8.32;;;4.68;;
66546;SDS011;53400;50.364;14.874;2023-06-01T03:13:56;6.85;;;4.60;;
66546;SDS011;53400;50.364;14.874;2023-06-01T03:16:22;7.50;;;4.68;;
66546;SDS011;53400;50.364;14.874;2023-06-01T03:18:48;7.47;;;3.97;;
66546;SDS011;53400;50.364;14.874;2023-06-01T03:21:14;9.18;;;4.45;;
66546;SDS011;53400;50.364;14.874;2023-06-01T03:23:42;8.57;;;4.68;;
66546;SDS011;53400;50.364;14.874;2023-06-01T03:26:09;8.35;;;4.55;;
66546;SDS011;53400;50.364;14.874;2023-06-01T03:28:37;7.60;;;4.53;;
66546;SDS011;53400;50.364;14.874;2023-06-01T03:31:03;9.13;;;4.53;;
66546;SDS011;53400;50.364;14.874;2023-06-01T03:33:29;7.30;;;4.15;;
66546;SDS011;53400;50.364;14.874;2023-06-01T03:35:55;8.25;;;4.70;;
66546;SDS011;53400;50.364;14.874;2023-06-01T03:38:21;7.47;;;4.43;;
66546;SDS011;53400;50.364;14.874;2023-06-01T03:40:47;7.82;;;4.60;;
66546;SDS011;53400;50.364;14.874;2023-06-01T03:43:13;8.77;;;4.90;;
66546;SDS011;53400;50.364;14.874;2023-06-01T03:45:41;7.03;;;4.32;;
66546;SDS011;53400;50.364;14.874;2023-06-01T03:48:07;8.85;;;4.90;;
66546;SDS011;53400;50.364;14.874;2023-06-01T03:50:33;9.18;;;4.60;;
66546;SDS011;53400;50.364;14.874;2023-06-01T03:52:59;8.95;;;4.55;;
66546;SDS011;53400;50.364;14.874;2023-06-01T03:55:25;7.65;;;4.72;;
66546;SDS011;53400;50.364;14.874;2023-06-01T03:57:52;7.10;;;4.22;;
66546;SDS011;53400;50.364;14.874;2023-06-01T04:00:18;7.75;;;4.60;;
66546;SDS011;53400;50.364;14.874;2023-06-01T04:02:48;9.40;;;4.63;;
66546;SDS011;53400;50.364;14.874;2023-06-01T04:05:15;6.70;;;4.40;;
66546;SDS011;53400;50.364;14.874;2023-06-01T04:07:43;7.80;;;4.40;;
66546;SDS011;53400;50.364;14.874;2023-06-01T04:10:10;7.32;;;4.82;;
66546;SDS011;53400;50.364;14.874;2023-06-01T04:12:39;9.52;;;4.78;;
66546;SDS011;53400;50.364;14.874;2023-06-01T04:15:06;7.10;;;5.05;;
66546;SDS011;53400;50.364;14.874;2023-06-01T04:17:35;8.85;;;5.20;;
66546;SDS011;53400;50.364;14.874;2023-06-01T04:20:02;8.88;;;5.10;;
66546;SDS011;53400;50.364;14.874;2023-06-01T04:22:31;7.65;;;4.82;;
66546;SDS011;53400;50.364;14.874;2023-06-01T04:24:57;10.63;;;4.95;;
66546;SDS011;53400;50.364;14.874;2023-06-01T04:27:23;7.57;;;4.80;;
66546;SDS011;53400;50.364;14.874;2023-06-01T04:29:50;7.80;;;4.57;;
66546;SDS011;53400;50.364;14.874;2023-06-01T04:32:16;8.52;;;5.20;;
66546;SDS011;53400;50.364;14.874;2023-06-01T04:34:46;7.38;;;4.90;;
66546;SDS011;53400;50.364;14.874;2023-06-01T04:37:15;8.55;;;4.85;;
66546;SDS011;53400;50.364;14.874;2023-06-01T04:39:41;8.48;;;5.40;;
66546;SDS011;53400;50.364;14.874;2023-06-01T04:42:11;8.43;;;5.55;;
66546;SDS011;53400;50.364;14.874;2023-06-01T04:44:38;10.25;;;5.53;;
66546;SDS011;53400;50.364;14.874;2023-06-01T04:47:07;10.10;;;5.60;;
66546;SDS011;53400;50.364;14.874;2023-06-01T04:49:34;12.27;;;6.13;;
66546;SDS011;53400;50.364;14.874;2023-06-01T04:52:06;11.70;;;6.78;;
66546;SDS011;53400;50.364;14.874;2023-06-01T04:54:34;9.80;;;6.65;;
66546;SDS011;53400;50.364;14.874;2023-06-01T04:57:00;13.57;;;6.88;;
66546;SDS011;53400;50.364;14.874;2023-06-01T04:59:27;10.88;;;6.75;;
66546;SDS011;53400;50.364;14.874;2023-06-01T05:01:53;12.73;;;7.18;;
66546;SDS011;53400;50.364;14.874;2023-06-01T05:04:19;12.93;;;6.70;;
66546;SDS011;53400;50.364;14.874;2023-06-01T05:06:46;9.63;;;6.07;;
66546;SDS011;53400;50.364;14.874;2023-06-01T05:09:12;9.23;;;6.32;;
66546;SDS011;53400;50.364;14.874;2023-06-01T05:11:39;10.27;;;6.50;;
66546;SDS011;53400;50.364;14.874;2023-06-01T05:14:06;9.48;;;6.75;;
66546;SDS011;53400;50.364;14.874;2023-06-01T05:16:31;10.80;;;6.72;;
66546;SDS011;53400;50.364;14.874;2023-06-01T05:18:58;9.93;;;5.97;;
66546;SDS011;53400;50.364;14.874;2023-06-01T05:21:24;9.07;;;5.90;;
66546;SDS011;53400;50.364;14.874;2023-06-01T05:23:50;10.65;;;5.70;;
66546;SDS011;53400;50.364;14.874;2023-06-01T05:26:15;12.18;;;6.28;;
66546;SDS011;53400;50.364;14.874;2023-06-01T05:28:43;10.77;;;6.18;;
66546;SDS011;53400;50.364;14.874;2023-06-01T05:31:09;9.20;;;6.07;;
66546;SDS011;53400;50.364;14.874;2023-06-01T05:33:35;10.57;;;6.20;;
66546;SDS011;53400;50.364;14.874;2023-06-01T05:36:02;8.77;;;6.10;;
66546;SDS011;53400;50.364;14.874;2023-06-01T05:38:28;11.38;;;6.60;;
66546;SDS011;53400;50.364;14.874;2023-06-01T05:40:54;9.93;;;6.75;;
66546;SDS011;53400;50.364;14.874;2023-06-01T05:43:20;9.02;;;5.95;;
66546;SDS011;53400;50.364;14.874;2023-06-01T05:45:48;9.10;;;5.50;;
66546;SDS011;53400;50.364;14.874;2023-06-01T05:48:14;11.75;;;5.97;;
66546;SDS011;53400;50.364;14.874;2023-06-01T05:50:40;7.80;;;5.30;;
66546;SDS011;53400;50.364;14.874;2023-06-01T05:53:06;8.82;;;5.57;;
66546;SDS011;53400;50.364;14.874;2023-06-01T05:55:32;9.07;;;5.15;;
66546;SDS011;53400;50.364;14.874;2023-06-01T05:57:58;7.70;;;5.35;;
66546;SDS011;53400;50.364;14.874;2023-06-01T06:00:24;8.85;;;5.35;;
66546;SDS011;53400;50.364;14.874;2023-06-01T06:02:51;7.60;;;5.10;;
66546;SDS011;53400;50.364;14.874;2023-06-01T06:05:17;7.80;;;4.90;;
66546;SDS011;53400;50.364;14.874;2023-06-01T06:07:43;10.70;;;4.82;;
66546;SDS011;53400;50.364;14.874;2023-06-01T06:10:09;9.63;;;5.15;;
66546;SDS011;53400;50.364;14.874;2023-06-01T06:12:38;9.88;;;4.93;;
66546;SDS011;53400;50.364;14.874;2023-06-01T06:27:13;9.13;;;5.03;;
66546;SDS011;53400;50.364;14.874;2023-06-01T06:29:46;8.07;;;4.50;;
66546;SDS011;53400;50.364;14.874;2023-06-01T06:32:13;7.68;;;4.50;;
66546;SDS011;53400;50.364;14.874;2023-06-01T06:34:48;8.02;;;4.97;;
66546;SDS011;53400;50.364;14.874;2023-06-01T06:37:22;7.13;;;4.85;;
66546;SDS011;53400;50.364;14.874;2023-06-01T06:39:55;7.63;;;4.70;;
66546;SDS011;53400;50.364;14.874;2023-06-01T06:42:30;8.98;;;4.97;;
66546;SDS011;53400;50.364;14.874;2023-06-01T06:45:04;9.80;;;5.53;;
66546;SDS011;53400;50.364;14.874;2023-06-01T06:47:45;9.80;;;5.00;;
66546;SDS011;53400;50.364;14.874;2023-06-01T06:50:16;10.93;;;4.97;;
66546;SDS011;53400;50.364;14.874;2023-06-01T06:53:04;9.25;;;4.90;;
66546;SDS011;53400;50.364;14.874;2023-06-01T06:55:39;7.70;;;5.03;;
66546;SDS011;53400;50.364;14.874;2023-06-01T06:58:34;10.87;;;5.00;;
66546;SDS011;53400;50.364;14.874;2023-06-01T07:01:09;8.68;;;5.85;;
66546;SDS011;53400;50.364;14.874;2023-06-01T07:03:40;9.27;;;5.60;;
66546;SDS011;53400;50.364;14.874;2023-06-01T07:06:14;7.68;;;4.85;;
66546;SDS011;53400;50.364;14.874;2023-06-01T07:08:45;7.07;;;4.85;;
66546;SDS011;53400;50.364;14.874;2023-06-01T07:11:58;8.13;;;5.15;;
66546;SDS011;53400;50.364;14.874;2023-06-01T07:14:47;9.52;;;5.68;;
66546;SDS011;53400;50.364;14.874;2023-06-01T07:17:21;10.95;;;5.63;;
66546;SDS011;53400;50.364;14.874;2023-06-01T07:21:31;11.13;;;5.07;;
66546;SDS011;53400;50.364;14.874;2023-06-01T07:24:46;6.95;;;4.85;;
66546;SDS011;53400;50.364;14.874;2023-06-01T07:27:19;11.35;;;5.78;;
66546;SDS011;53400;50.364;14.874;2023-06-01T07:33:10;7.57;;;4.65;;
66546;SDS011;53400;50.364;14.874;2023-06-01T07:35:39;8.23;;;4.85;;
66546;SDS011;53400;50.364;14.874;2023-06-01T07:38:06;10.57;;;5.38;;
66546;SDS011;53400;50.364;14.874;2023-06-01T07:40:38;10.85;;;5.10;;
66546;SDS011;53400;50.364;14.874;2023-06-01T07:43:10;10.43;;;5.25;;
66546;SDS011;53400;50.364;14.874;2023-06-01T07:45:52;7.00;;;3.97;;
66546;SDS011;53400;50.364;14.874;2023-06-01T07:48:24;9.30;;;4.55;;
66546;SDS011;53400;50.364;14.874;2023-06-01T07:50:54;9.77;;;4.63;;
66546;SDS011;53400;50.364;14.874;2023-06-01T07:53:40;7.38;;;4.40;;
66546;SDS011;53400;50.364;14.874;2023-06-01T07:56:09;10.23;;;4.57;;
66546;SDS011;53400;50.364;14.874;2023-06-01T07:58:40;13.15;;;4.30;;
66546;SDS011;53400;50.364;14.874;2023-06-01T08:01:07;10.00;;;4.43;;
66546;SDS011;53400;50.364;14.874;2023-06-01T08:03:42;8.38;;;4.07;;
66546;SDS011;53400;50.364;14.874;2023-06-01T08:06:16;6.90;;;4.30;;
66546;SDS011;53400;50.364;14.874;2023-06-01T08:08:45;7.57;;;4.18;;
66546;SDS011;53400;50.364;14.874;2023-06-01T08:11:23;7.38;;;4.65;;
66546;SDS011;53400;50.364;14.874;2023-06-01T08:13:57;8.40;;;4.35;;
66546;SDS011;53400;50.364;14.874;2023-06-01T08:16:43;6.80;;;3.72;;
66546;SDS011;53400;50.364;14.874;2023-06-01T08:19:52;7.10;;;4.00;;
66546;SDS011;53400;50.364;14.874;2023-06-01T08:22:34;7.13;;;3.67;;
66546;SDS011;53400;50.364;14.874;2023-06-01T08:25:04;8.35;;;3.75;;
66546;SDS011;53400;50.364;14.874;2023-06-01T08:27:57;7.50;;;3.70;;
66546;SDS011;53400;50.364;14.874;2023-06-01T08:30:26;7.25;;;3.95;;
66546;SDS011;53400;50.364;14.874;2023-06-01T08:33:07;6.85;;;3.50;;
66546;SDS011;53400;50.364;14.874;2023-06-01T08:36:08;7.15;;;3.70;;
66546;SDS011;53400;50.364;14.874;2023-06-01T08:38:55;8.37;;;3.57;;
66546;SDS011;53400;50.364;14.874;2023-06-01T08:42:25;6.32;;;3.55;;
66546;SDS011;53400;50.364;14.874;2023-06-01T08:45:10;7.07;;;3.70;;
66546;SDS011;53400;50.364;14.874;2023-06-01T08:47:58;5.93;;;3.47;;
66546;SDS011;53400;50.364;14.874;2023-06-01T08:50:43;7.13;;;3.50;;
66546;SDS011;53400;50.364;14.874;2023-06-01T08:53:53;6.05;;;3.47;;
66546;SDS011;53400;50.364;14.874;2023-06-01T08:56:36;8.02;;;3.50;;
66546;SDS011;53400;50.364;14.874;2023-06-01T08:59:10;9.27;;;3.47;;
66546;SDS011;53400;50.364;14.874;2023-06-01T09:02:01;7.80;;;3.80;;
66546;SDS011;53400;50.364;14.874;2023-06-01T09:04:35;6.75;;;3.55;;
66546;SDS011;53400;50.364;14.874;2023-06-01T09:07:36;5.95;;;3.45;;
66546;SDS011;53400;50.364;14.874;2023-06-01T09:10:12;6.57;;;3.67;;
66546;SDS011;53400;50.364;14.874;2023-06-01T09:12:55;7.03;;;3.17;;
66546;SDS011;53400;50.364;14.874;2023-06-01T09:15:38;6.00;;;2.80;;
66546;SDS011;53400;50.364;14.874;2023-06-01T09:19:23;6.93;;;3.20;;
66546;SDS011;53400;50.364;14.874;2023-06-01T09:22:19;7.72;;;3.10;;
66546;SDS011;53400;50.364;14.874;2023-06-01T09:29:16;5.93;;;2.72;;
66546;SDS011;53400;50.364;14.874;2023-06-01T09:31:48;5.75;;;2.83;;
66546;SDS011;53400;50.364;14.874;2023-06-01T09:34:27;4.88;;;2.03;;
66546;SDS011;53400;50.364;14.874;2023-06-01T09:36:59;6.85;;;2.88;;
66546;SDS011;53400;50.364;14.874;2023-06-01T09:39:38;5.55;;;2.80;;
66546;SDS011;53400;50.364;14.874;2023-06-01T09:42:10;5.78;;;2.45;;
66546;SDS011;53400;50.364;14.874;2023-06-01T09:44:41;7.18;;;2.85;;
66546;SDS011;53400;50.364;14.874;2023-06-01T09:47:13;5.47;;;2.10;;
66546;SDS011;53400;50.364;14.874;2023-06-01T09:49:43;5.15;;;2.10;;
66546;SDS011;53400;50.364;14.874;2023-06-01T09:52:22;5.60;;;2.47;;
66546;SDS011;53400;50.364;14.874;2023-06-01T09:59:42;5.15;;;2.28;;
66546;SDS011;53400;50.364;14.874;2023-06-01T10:02:17;4.25;;;2.10;;
66546;SDS011;53400;50.364;14.874;2023-06-01T10:05:09;6.70;;;2.38;;
66546;SDS011;53400;50.364;14.874;2023-06-01T10:08:14;4.65;;;2.30;;
66546;SDS011;53400;50.364;14.874;2023-06-01T10:10:58;4.50;;;2.60;;
66546;SDS011;53400;50.364;14.874;2023-06-01T10:14:07;5.43;;;2.25;;
66546;SDS011;53400;50.364;14.874;2023-06-01T10:19:48;6.93;;;2.70;;
66546;SDS011;53400;50.364;14.874;2023-06-01T10:22:40;6.90;;;2.50;;
66546;SDS011;53400;50.364;14.874;2023-06-01T10:26:05;5.63;;;2.15;;
66546;SDS011;53400;50.364;14.874;2023-06-01T10:28:38;6.43;;;2.53;;
66546;SDS011;53400;50.364;14.874;2023-06-01T10:31:34;5.78;;;2.70;;
66546;SDS011;53400;50.364;14.874;2023-06-01T10:34:14;6.28;;;2.33;;
66546;SDS011;53400;50.364;14.874;2023-06-01T10:39:42;4.93;;;2.33;;
66546;SDS011;53400;50.364;14.874;2023-06-01T10:45:40;6.07;;;2.90;;
66546;SDS011;53400;50.364;14.874;2023-06-01T10:48:53;6.35;;;3.28;;
66546;SDS011;53400;50.364;14.874;2023-06-01T10:51:34;7.22;;;3.22;;
66546;SDS011;53400;50.364;14.874;2023-06-01T10:54:27;5.43;;;3.00;;
66546;SDS011;53400;50.364;14.874;2023-06-01T10:57:17;7.05;;;3.10;;
66546;SDS011;53400;50.364;14.874;2023-06-01T11:00:13;5.80;;;3.00;;
66546;SDS011;53400;50.364;14.874;2023-06-01T11:02:50;6.00;;;2.88;;
66546;SDS011;53400;50.364;14.874;2023-06-01T11:05:40;5.80;;;3.00;;
66546;SDS011;53400;50.364;14.874;2023-06-01T11:14:41;5.30;;;2.90;;
66546;SDS011;53400;50.364;14.874;2023-06-01T11:17:57;6.10;;;3.08;;
66546;SDS011;53400;50.364;14.874;2023-06-01T11:20:51;6.18;;;2.72;;
66546;SDS011;53400;50.364;14.874;2023-06-01T11:23:43;6.68;;;3.00;;
66546;SDS011;53400;50.364;14.874;2023-06-01T11:36:41;6.72;;;2.97;;
66546;SDS011;53400;50.364;14.874;2023-06-01T11:39:52;5.55;;;3.22;;
66546;SDS011;53400;50.364;14.874;2023-06-01T11:42:49;6.38;;;3.03;;
66546;SDS011;53400;50.364;14.874;2023-06-01T11:45:41;7.00;;;3.05;;
66546;SDS011;53400;50.364;14.874;2023-06-01T11:48:28;7.72;;;3.40;;
66546;SDS011;53400;50.364;14.874;2023-06-01T11:54:25;7.32;;;3.50;;
66546;SDS011;53400;50.364;14.874;2023-06-01T11:57:23;6.43;;;3.38;;
66546;SDS011;53400;50.364;14.874;2023-06-01T12:00:39;6.75;;;3.67;;
66546;SDS011;53400;50.364;14.874;2023-06-01T12:03:37;8.77;;;3.55;;
66546;SDS011;53400;50.364;14.874;2023-06-01T12:13:24;6.97;;;3.47;;
66546;SDS011;53400;50.364;14.874;2023-06-01T12:16:19;7.32;;;3.28;;
66546;SDS011;53400;50.364;14.874;2023-06-01T12:19:28;7.55;;;3.13;;
66546;SDS011;53400;50.364;14.874;2023-06-01T12:22:17;6.25;;;3.10;;
66546;SDS011;53400;50.364;14.874;2023-06-01T12:25:13;7.47;;;3.35;;
66546;SDS011;53400;50.364;14.874;2023-06-01T12:28:30;5.70;;;2.75;;
66546;SDS011;53400;50.364;14.874;2023-06-01T12:32:06;5.60;;;3.10;;
66546;SDS011;53400;50.364;14.874;2023-06-01T12:35:08;7.90;;;2.95;;
66546;SDS011;53400;50.364;14.874;2023-06-01T12:38:16;5.95;;;2.50;;
66546;SDS011;53400;50.364;14.874;2023-06-01T12:41:50;5.30;;;2.60;;
66546;SDS011;53400;50.364;14.874;2023-06-01T12:52:09;5.25;;;2.63;;
66546;SDS011;53400;50.364;14.874;2023-06-01T12:54:49;5.65;;;2.75;;
66546;SDS011;53400;50.364;14.874;2023-06-01T12:57:53;6.00;;;2.78;;
66546;SDS011;53400;50.364;14.874;2023-06-01T13:00:48;5.65;;;3.20;;
66546;SDS011;53400;50.364;14.874;2023-06-01T13:03:38;5.43;;;2.90;;
66546;SDS011;53400;50.364;14.874;2023-06-01T13:06:19;5.43;;;2.65;;
66546;SDS011;53400;50.364;14.874;2023-06-01T13:09:44;5.55;;;2.80;;
66546;SDS011;53400;50.364;14.874;2023-06-01T13:12:29;5.50;;;2.80;;
66546;SDS011;53400;50.364;14.874;2023-06-01T13:15:39;5.93;;;2.72;;
66546;SDS011;53400;50.364;14.874;2023-06-01T13:19:08;4.80;;;2.50;;
66546;SDS011;53400;50.364;14.874;2023-06-01T13:22:07;5.68;;;2.53;;
66546;SDS011;53400;50.364;14.874;2023-06-01T13:25:08;6.38;;;2.85;;
66546;SDS011;53400;50.364;14.874;2023-06-01T13:28:46;5.28;;;2.55;;
66546;SDS011;53400;50.364;14.874;2023-06-01T13:32:12;5.60;;;2.50;;
66546;SDS011;53400;50.364;14.874;2023-06-01T13:39:15;6.32;;;2.35;;
66546;SDS011;53400;50.364;14.874;2023-06-01T13:42:27;5.43;;;2.58;;
66546;SDS011;53400;50.364;14.874;2023-06-01T13:45:03;5.28;;;2.58;;
66546;SDS011;53400;50.364;14.874;2023-06-01T13:47:47;6.05;;;2.42;;
66546;SDS011;53400;50.364;14.874;2023-06-01T13:50:25;5.20;;;2.60;;
66546;SDS011;53400;50.364;14.874;2023-06-01T13:56:25;8.25;;;2.60;;
66546;SDS011;53400;50.364;14.874;2023-06-01T13:59:06;7.38;;;2.60;;
66546;SDS011;53400;50.364;14.874;2023-06-01T14:02:26;6.07;;;2.70;;
66546;SDS011;53400;50.364;14.874;2023-06-01T14:04:59;5.18;;;2.70;;
66546;SDS011;53400;50.364;14.874;2023-06-01T14:08:12;6.35;;;2.47;;
66546;SDS011;53400;50.364;14.874;2023-06-01T14:10:58;5.03;;;2.75;;
66546;SDS011;53400;50.364;14.874;2023-06-01T14:13:35;5.25;;;2.78;;
66546;SDS011;53400;50.364;14.874;2023-06-01T14:16:17;7.20;;;2.78;;
66546;SDS011;53400;50.364;14.874;2023-06-01T14:19:26;6.43;;;2.70;;
66546;SDS011;53400;50.364;14.874;2023-06-01T14:22:24;5.90;;;2.78;;
66546;SDS011;53400;50.364;14.874;2023-06-01T14:25:13;6.22;;;2.78;;
66546;SDS011;53400;50.364;14.874;2023-06-01T14:27:57;5.88;;;2.65;;
66546;SDS011;53400;50.364;14.874;2023-06-01T14:30:42;6.35;;;2.75;;
66546;SDS011;53400;50.364;14.874;2023-06-01T14:33:35;5.40;;;2.50;;
66546;SDS011;53400;50.364;14.874;2023-06-01T14:36:24;5.00;;;2.78;;
66546;SDS011;53400;50.364;14.874;2023-06-01T14:39:06;6.70;;;2.78;;
66546;SDS011;53400;50.364;14.874;2023-06-01T14:41:33;5.07;;;2.65;;
66546;SDS011;53400;50.364;14.874;2023-06-01T14:44:04;5.53;;;3.00;;
66546;SDS011;53400;50.364;14.874;2023-06-01T14:46:32;6.28;;;2.70;;
66546;SDS011;53400;50.364;14.874;2023-06-01T14:48:59;5.22;;;2.80;;
66546;SDS011;53400;50.364;14.874;2023-06-01T14:51:31;6.10;;;2.72;;
66546;SDS011;53400;50.364;14.874;2023-06-01T14:54:03;6.13;;;2.72;;
66546;SDS011;53400;50.364;14.874;2023-06-01T14:56:40;6.20;;;2.90;;
66546;SDS011;53400;50.364;14.874;2023-06-01T14:59:09;6.13;;;2.80;;
66546;SDS011;53400;50.364;14.874;2023-06-01T15:01:43;5.72;;;2.90;;
66546;SDS011;53400;50.364;14.874;2023-06-01T15:04:18;6.07;;;2.95;;
66546;SDS011;53400;50.364;14.874;2023-06-01T15:07:10;6.82;;;2.55;;
66546;SDS011;53400;50.364;14.874;2023-06-01T15:09:37;6.28;;;2.50;;
66546;SDS011;53400;50.364;14.874;2023-06-01T15:12:09;7.38;;;3.08;;
66546;SDS011;53400;50.364;14.874;2023-06-01T15:14:41;4.93;;;2.60;;
66546;SDS011;53400;50.364;14.874;2023-06-01T15:17:10;5.70;;;2.70;;
66546;SDS011;53400;50.364;14.874;2023-06-01T15:19:49;7.40;;;2.72;;
66546;SDS011;53400;50.364;14.874;2023-06-01T15:22:54;4.97;;;2.45;;
66546;SDS011;53400;50.364;14.874;2023-06-01T15:25:25;7.68;;;2.80;;
66546;SDS011;53400;50.364;14.874;2023-06-01T15:27:53;8.40;;;3.05;;
66546;SDS011;53400;50.364;14.874;2023-06-01T15:30:23;6.35;;;3.10;;
66546;SDS011;53400;50.364;14.874;2023-06-01T15:33:23;6.33;;;2.60;;
66546;SDS011;53400;50.364;14.874;2023-06-01T15:36:16;5.30;;;2.70;;
66546;SDS011;53400;50.364;14.874;2023-06-01T15:38:51;5.72;;;2.85;;
66546;SDS011;53400;50.364;14.874;2023-06-01T15:41:39;5.20;;;2.67;;
66546;SDS011;53400;50.364;14.874;2023-06-01T15:44:16;5.95;;;2.70;;
66546;SDS011;53400;50.364;14.874;2023-06-01T15:46:52;5.43;;;2.78;;
66546;SDS011;53400;50.364;14.874;2023-06-01T15:49:35;7.57;;;2.60;;
66546;SDS011;53400;50.364;14.874;2023-06-01T15:52:08;5.20;;;2.70;;
66546;SDS011;53400;50.364;14.874;2023-06-01T15:54:46;5.88;;;2.90;;
66546;SDS011;53400;50.364;14.874;2023-06-01T15:57:28;5.43;;;2.90;;
66546;SDS011;53400;50.364;14.874;2023-06-01T15:59:58;6.15;;;2.95;;
66546;SDS011;53400;50.364;14.874;2023-06-01T16:05:27;4.90;;;2.67;;
66546;SDS011;53400;50.364;14.874;2023-06-01T16:08:21;4.82;;;2.33;;
66546;SDS011;53400;50.364;14.874;2023-06-01T16:10:57;6.80;;;2.88;;
66546;SDS011;53400;50.364;14.874;2023-06-01T16:13:28;9.43;;;3.58;;
66546;SDS011;53400;50.364;14.874;2023-06-01T16:16:14;6.35;;;2.70;;
66546;SDS011;53400;50.364;14.874;2023-06-01T16:19:30;6.43;;;3.60;;
66546;SDS011;53400;50.364;14.874;2023-06-01T16:22:25;6.35;;;2.97;;
66546;SDS011;53400;50.364;14.874;2023-06-01T16:25:25;5.63;;;2.90;;
66546;SDS011;53400;50.364;14.874;2023-06-01T16:28:19;6.90;;;3.80;;
66546;SDS011;53400;50.364;14.874;2023-06-01T16:37:56;5.55;;;2.60;;
66546;SDS011;53400;50.364;14.874;2023-06-01T16:40:35;6.50;;;2.63;;
66546;SDS011;53400;50.364;14.874;2023-06-01T16:43:42;5.35;;;2.58;;
66546;SDS011;53400;50.364;14.874;2023-06-01T16:46:29;5.57;;;2.63;;
66546;SDS011;53400;50.364;14.874;2023-06-01T16:49:09;5.50;;;2.72;;
66546;SDS011;53400;50.364;14.874;2023-06-01T16:51:55;7.55;;;3.10;;
66546;SDS011;53400;50.364;14.874;2023-06-01T16:54:29;5.82;;;2.75;;
66546;SDS011;53400;50.364;14.874;2023-06-01T16:57:32;6.20;;;2.90;;
66546;SDS011;53400;50.364;14.874;2023-06-01T17:00:18;9.98;;;3.10;;
66546;SDS011;53400;50.364;14.874;2023-06-01T17:02:51;6.68;;;3.00;;
66546;SDS011;53400;50.364;14.874;2023-06-01T17:05:30;8.43;;;3.17;;